Redwood City, CA

6:25 PM PDT on September 21, 2014 (GMT -0700)
Centennial | Change Station
CLOSE
Current Station
Personal Weather Station
Location: Redwood City, CA
Elevation: 10 ft
Nearby Weather Stations

Elev 10 ft 37.50 °N, 122.24 °W | Updated 10 minutes ago

Partly Cloudy
Partly Cloudy
68.8 °F
Feels Like 68.8 °F
N
1.0
Wind Variable Wind from ESE
Gusts 12.0 mph

Today
High -- | Low -- °F
--% Chance of Precip.
Yesterday
High -- | Low -- °F
Precip. -- in
6:55 AM 7:07 PM
Waning Crescent, 4% visible
Pressure 29.99 in
Visibility 10.0 miles
Clouds Scattered Clouds 1800 ft
Dew Point 59 °F
Humidity 72%
Rainfall 0.00 in
Snow Depth 0 in , 0 in , 1 in
UV 1 out of 12
Pollen 3.80 out of 12
Ozone Good
PM2.5 Good
Flu Activity Not available.
METAR KSQL 220047Z 27014G20KT 10SM SCT018 20/15 A2999

More Conditions Fewer Conditions

Pressure 29.99 in
Visibility 10.0 miles
Clouds Scattered Clouds 1800 ft
Dew Point 59 °F
Humidity 72%
Rainfall 0.00 in
Snow Depth 0 in , 0 in , 1 in
UV 1 out of 12
Pollen 3.80 out of 12
Ozone Good
PM2.5 Good
Flu Activity Not available.
METAR KSQL 220047Z 27014G20KT 10SM SCT018 20/15 A2999

More Conditions Fewer Conditions

10-Day Weather Forecast

Almanac

Astronomy

Sep. 21, 2014 Rise Set
Actual Time 6:55 AM PDT 7:07 PM PDT
Civil Twilight 6:29 AM PDT 7:33 PM PDT
Nautical Twilight 5:59 AM PDT 8:03 PM PDT
Astronomical Twilight 5:28 AM PDT 8:34 PM PDT
Moon 4:36 AM PDT (9/21) 5:44 PM PDT (9/21)
Length of Visible Light 13h 03m
Length of Day
12h 11m
Tomorrow will be 2m 23s shorter.
Waning Crescent, 4% of the Moon is Illuminated
Today
Waning Crescent
Sep 24
New
Oct 1
First Quarter
Oct 8
Full
Oct 15
Last Quarter

Today's Extremes

State Highs State Lows

Community

WunderPhotos

Upload Photos

1,755,342 photos uploaded!

WunderBlogs® & News

Nearby

Air Quality

  Air Quality AQ Index Pollutant
Yesterday Good
PM2.5
Yesterday Good
OZONE
Current Good
PM2.5
Current Good
OZONE
Sunday Moderate
PM2.5
Monday Good
PM2.5
Tuesday Good
PM2.5
Wednesday Good
OZONE
Thursday Good
OZONE
Friday Good
OZONE

Snow Depth

Station Depth Elevation
Burnside Lake 0 in 8139 ft
Rubicon #2 0 in 7500 ft
Summit Meadow 0 in 9122 ft
Leavitt Meadows 1 in 7200 ft
Leavitt Lake 0 in 9400 ft

Earthquake Activity

City Distance Mag. Time & Date
Sonoma, California 59 miles 2.7 1:17 PM PDT
2014-09-21
Cloverdale, California 99 miles 2.5 9:15 PM PDT
2014-09-20
Livermore, California 29 miles 2.6 3:37 AM PDT
2014-09-19
The Geysers, California 91 miles 2.5 11:29 PM PDT
2014-09-17
Minimum magnitude displayed is 2.5.

Coastal Water Temperatures

Place Temperature
No Stations Reporting

Nearby Weather Stations